Roza A — TCRB7 — position and weather

sailwx.info

Track history (hours):
 
Tides and Currents Weather Stations Pressure Air Temp Water Temp Dewpoint Dewpoint Depression Visibility Wind Speed Wind Dir Waves Ship Positions

Roza A

Last reported at 2015-Mar-02 12:32 UTC. Time now 2015-Mar-02 23:09 UTC.
Position N 38°27' E 024°28'.

Length 169 m; draft 9 m.

Type: Ship (hazmat cat A). MMSI: 271001057.

Date/timePositionNaut miles runAvg speedWind from/ knotsBaromVisibWave heightAir tempDewpointWater temp
2015-Mar-02 12:32N 38°27' E 024°28'5511.0
2015-Mar-02 07:33N 37°36' E 024°02'1313.5
2015-Mar-02 06:33N 37°38' E 023°45'1413.9
2015-Mar-02 05:33N 37°50' E 023°37'7 7.1
2015-Mar-02 04:31N 37°57' E 023°35'0 0.0
2015-Mar-02 03:31N 37°57' E 023°35'0 0.0
2015-Mar-02 02:31N 37°57' E 023°35'0 0.0
2015-Mar-02 01:31N 37°57' E 023°35'0 0.0
2015-Mar-02 00:31N 37°57' E 023°35'0 0.0
2015-Mar-01 23:31N 37°57' E 023°35'0 0.0
2015-Mar-01 22:31N 37°57' E 023°35'0 0.0
2015-Mar-01 21:31N 37°57' E 023°35'0 0.0
2015-Mar-01 20:31N 37°57' E 023°35'0 0.0
2015-Mar-01 19:32N 37°57' E 023°35'3 3.5
2015-Mar-01 18:34N 37°54' E 023°36'0 0.3
2015-Mar-01 17:33N 37°54' E 023°36'3 3.1
2015-Mar-01 16:34N 37°51' E 023°38'9 9.3
2015-Mar-01 15:33N 37°43' E 023°44'1212.4
2015-Mar-01 14:33N 37°31' E 023°45'1514.3
2015-Mar-01 13:31N 37°17' E 023°37'1414.4
2015-Mar-01 12:32N 37°04' E 023°29'1614.3
2015-Mar-01 11:25N 36°49' E 023°23'  
2015-Feb-26 12:19N 43°05' E 005°10'1013.4
2015-Feb-26 11:34N 43°12' E 005°00'1312.5
2015-Feb-26 10:34N 43°24' E 004°55'3 2.7
2015-Feb-26 09:32N 43°24' E 004°51'0 0.0
2015-Feb-26 08:32N 43°24' E 004°51'0 0.0
2015-Feb-26 07:32N 43°24' E 004°51'0 0.0
2015-Feb-26 06:32N 43°24' E 004°51'0 0.0
2015-Feb-26 05:29N 43°24' E 004°51'0 0.0
2015-Feb-26 04:32N 43°24' E 004°51'0 0.0
2015-Feb-26 03:32N 43°24' E 004°51'0 0.0
2015-Feb-26 02:32N 43°24' E 004°51'0 0.0
2015-Feb-26 01:29N 43°24' E 004°51'0 0.0
2015-Feb-26 00:32N 43°24' E 004°51'0 0.0
2015-Feb-25 23:32N 43°24' E 004°51'0 0.0
2015-Feb-25 22:29N 43°24' E 004°51'0 0.0
2015-Feb-25 21:29N 43°24' E 004°51'0 0.0
2015-Feb-25 20:32N 43°24' E 004°51'0 0.0
2015-Feb-25 19:29N 43°24' E 004°51'0 0.0
2015-Feb-25 18:32N 43°24' E 004°51'0 0.0
2015-Feb-25 17:32N 43°24' E 004°51'0 0.0
2015-Feb-25 16:29N 43°24' E 004°51'0 0.0
2015-Feb-25 15:29N 43°24' E 004°51'0 0.0
2015-Feb-25 14:32N 43°24' E 004°51'1 1.0
2015-Feb-25 13:33N 43°24' E 004°52'7 6.9
2015-Feb-25 12:33N 43°19' E 004°59'1010.1
2015-Feb-25 11:33N 43°09' E 004°59'1412.4
2015-Feb-25 10:27N 43°02' E 004°43'1311.1
2015-Feb-25 09:14N 42°55' E 004°28'1112.1
2015-Feb-25 08:21N 42°49' E 004°15'8210.5
2015-Feb-25 00:30N 41°43' E 003°09'1313.0
2015-Feb-24 23:28N 41°35' E 002°54'3013.2
2015-Feb-24 21:13N 41°19' E 002°20'8 0.6
2015-Feb-24 08:20N 41°21' E 002°10'0 0.0
2015-Feb-24 07:20N 41°21' E 002°10'0 0.0
2015-Feb-24 02:24N 41°21' E 002°10'3 3.8
2015-Feb-24 01:33N 41°18' E 002°11'1110.5
2015-Feb-24 00:28N 41°09' E 002°03'1313.3
2015-Feb-23 23:29N 40°58' E 001°52'1413.3
2015-Feb-23 22:25N 40°47' E 001°40'1113.1
2015-Feb-23 21:33N 40°39' E 001°30'1414.0
2015-Feb-23 20:33N 40°31' E 001°15'1514.5
2015-Feb-23 19:33N 40°23' E 000°59'1514.7
2015-Feb-23 18:33N 40°15' E 000°42'1514.6
2015-Feb-23 17:33N 40°07' E 000°27'1514.7
2015-Feb-23 16:33N 39°59' E 000°11'7 0.5
2015-Feb-23 01:22N 39°58' E 000°02'27 0.7
2015-Feb-21 09:33N 39°32' W 000°08'10 9.8
2015-Feb-21 08:33N 39°26' W 000°18'2 1.6
2015-Feb-21 07:32N 39°27' W 000°19'0 0.0
2015-Feb-21 06:32N 39°27' W 000°19'0 0.0
2015-Feb-21 05:32N 39°27' W 000°19'0 0.0
2015-Feb-21 04:32N 39°27' W 000°19'0 0.0
2015-Feb-21 03:32N 39°27' W 000°19'0 0.0
2015-Feb-21 02:29N 39°27' W 000°19'0 0.0
2015-Feb-21 01:32N 39°27' W 000°19'0 0.0
2015-Feb-21 00:32N 39°27' W 000°19'0 0.0
2015-Feb-20 23:32N 39°27' W 000°19'0 0.0
2015-Feb-20 22:32N 39°27' W 000°19'0 0.0
2015-Feb-20 21:32N 39°27' W 000°19'0 0.0
2015-Feb-20 20:29N 39°27' W 000°19'0 0.0
2015-Feb-20 19:32N 39°27' W 000°19'0 0.0
2015-Feb-20 18:32N 39°27' W 000°19'0 0.0
2015-Feb-20 17:32N 39°27' W 000°19'0 0.0
2015-Feb-20 16:32N 39°27' W 000°19'0 0.0
2015-Feb-20 15:32N 39°27' W 000°19'0 0.0
2015-Feb-20 14:32N 39°27' W 000°19'0 0.0
2015-Feb-20 13:32N 39°27' W 000°19'  
Track history (hours):
 
Tides and Currents Weather Stations Pressure Air Temp Water Temp Dewpoint Dewpoint Depression Visibility Wind Speed Wind Dir Waves Ship Positions

Roza A

Last reported at 2015-Mar-02 12:32 UTC. Time now 2015-Mar-02 23:09 UTC.
Position N 38°27' E 024°28'.

Length 169 m; draft 9 m.

Type: Ship (hazmat cat A). MMSI: 271001057.

Date/timePositionNaut miles runAvg speedWind from/ knotsBaromVisibWave heightAir tempDewpointWater temp
2015-Mar-02 12:32N 38°27' E 024°28'5511.0
2015-Mar-02 07:33N 37°36' E 024°02'1313.5
2015-Mar-02 06:33N 37°38' E 023°45'1413.9
2015-Mar-02 05:33N 37°50' E 023°37'7 7.1
2015-Mar-02 04:31N 37°57' E 023°35'0 0.0
2015-Mar-02 03:31N 37°57' E 023°35'0 0.0
2015-Mar-02 02:31N 37°57' E 023°35'0 0.0
2015-Mar-02 01:31N 37°57' E 023°35'0 0.0
2015-Mar-02 00:31N 37°57' E 023°35'0 0.0
2015-Mar-01 23:31N 37°57' E 023°35'0 0.0
2015-Mar-01 22:31N 37°57' E 023°35'0 0.0
2015-Mar-01 21:31N 37°57' E 023°35'0 0.0
2015-Mar-01 20:31N 37°57' E 023°35'0 0.0
2015-Mar-01 19:32N 37°57' E 023°35'3 3.5
2015-Mar-01 18:34N 37°54' E 023°36'0 0.3
2015-Mar-01 17:33N 37°54' E 023°36'3 3.1
2015-Mar-01 16:34N 37°51' E 023°38'9 9.3
2015-Mar-01 15:33N 37°43' E 023°44'1212.4
2015-Mar-01 14:33N 37°31' E 023°45'1514.3
2015-Mar-01 13:31N 37°17' E 023°37'1414.4
2015-Mar-01 12:32N 37°04' E 023°29'1614.3
2015-Mar-01 11:25N 36°49' E 023°23'  
2015-Feb-26 12:19N 43°05' E 005°10'1013.4
2015-Feb-26 11:34N 43°12' E 005°00'1312.5
2015-Feb-26 10:34N 43°24' E 004°55'3 2.7
2015-Feb-26 09:32N 43°24' E 004°51'0 0.0
2015-Feb-26 08:32N 43°24' E 004°51'0 0.0
2015-Feb-26 07:32N 43°24' E 004°51'0 0.0
2015-Feb-26 06:32N 43°24' E 004°51'0 0.0
2015-Feb-26 05:29N 43°24' E 004°51'0 0.0
2015-Feb-26 04:32N 43°24' E 004°51'0 0.0
2015-Feb-26 03:32N 43°24' E 004°51'0 0.0
2015-Feb-26 02:32N 43°24' E 004°51'0 0.0
2015-Feb-26 01:29N 43°24' E 004°51'0 0.0
2015-Feb-26 00:32N 43°24' E 004°51'0 0.0
2015-Feb-25 23:32N 43°24' E 004°51'0 0.0
2015-Feb-25 22:29N 43°24' E 004°51'0 0.0
2015-Feb-25 21:29N 43°24' E 004°51'0 0.0
2015-Feb-25 20:32N 43°24' E 004°51'0 0.0
2015-Feb-25 19:29N 43°24' E 004°51'0 0.0
2015-Feb-25 18:32N 43°24' E 004°51'0 0.0
2015-Feb-25 17:32N 43°24' E 004°51'0 0.0
2015-Feb-25 16:29N 43°24' E 004°51'0 0.0
2015-Feb-25 15:29N 43°24' E 004°51'0 0.0
2015-Feb-25 14:32N 43°24' E 004°51'1 1.0
2015-Feb-25 13:33N 43°24' E 004°52'7 6.9
2015-Feb-25 12:33N 43°19' E 004°59'1010.1
2015-Feb-25 11:33N 43°09' E 004°59'1412.4
2015-Feb-25 10:27N 43°02' E 004°43'1311.1
2015-Feb-25 09:14N 42°55' E 004°28'1112.1
2015-Feb-25 08:21N 42°49' E 004°15'8210.5
2015-Feb-25 00:30N 41°43' E 003°09'1313.0
2015-Feb-24 23:28N 41°35' E 002°54'3013.2
2015-Feb-24 21:13N 41°19' E 002°20'8 0.6
2015-Feb-24 08:20N 41°21' E 002°10'0 0.0
2015-Feb-24 07:20N 41°21' E 002°10'0 0.0
2015-Feb-24 02:24N 41°21' E 002°10'3 3.8
2015-Feb-24 01:33N 41°18' E 002°11'1110.5
2015-Feb-24 00:28N 41°09' E 002°03'1313.3
2015-Feb-23 23:29N 40°58' E 001°52'1413.3
2015-Feb-23 22:25N 40°47' E 001°40'1113.1
2015-Feb-23 21:33N 40°39' E 001°30'1414.0
2015-Feb-23 20:33N 40°31' E 001°15'1514.5
2015-Feb-23 19:33N 40°23' E 000°59'1514.7
2015-Feb-23 18:33N 40°15' E 000°42'1514.6
2015-Feb-23 17:33N 40°07' E 000°27'1514.7
2015-Feb-23 16:33N 39°59' E 000°11'7 0.5
2015-Feb-23 01:22N 39°58' E 000°02'27 0.7
2015-Feb-21 09:33N 39°32' W 000°08'10 9.8
2015-Feb-21 08:33N 39°26' W 000°18'2 1.6
2015-Feb-21 07:32N 39°27' W 000°19'0 0.0
2015-Feb-21 06:32N 39°27' W 000°19'0 0.0
2015-Feb-21 05:32N 39°27' W 000°19'0 0.0
2015-Feb-21 04:32N 39°27' W 000°19'0 0.0
2015-Feb-21 03:32N 39°27' W 000°19'0 0.0
2015-Feb-21 02:29N 39°27' W 000°19'0 0.0
2015-Feb-21 01:32N 39°27' W 000°19'0 0.0
2015-Feb-21 00:32N 39°27' W 000°19'0 0.0
2015-Feb-20 23:32N 39°27' W 000°19'0 0.0
2015-Feb-20 22:32N 39°27' W 000°19'0 0.0
2015-Feb-20 21:32N 39°27' W 000°19'0 0.0
2015-Feb-20 20:29N 39°27' W 000°19'0 0.0
2015-Feb-20 19:32N 39°27' W 000°19'0 0.0
2015-Feb-20 18:32N 39°27' W 000°19'0 0.0
2015-Feb-20 17:32N 39°27' W 000°19'0 0.0
2015-Feb-20 16:32N 39°27' W 000°19'0 0.0
2015-Feb-20 15:32N 39°27' W 000°19'0 0.0
2015-Feb-20 14:32N 39°27' W 000°19'0 0.0
2015-Feb-20 13:32N 39°27' W 000°19'  

Dump ship's entire track history